Forside
METAR-TAF:

METAR-TAF

Lufthavne :

Milwaukee, Wisconsin, USA

Breddekreds: 42-57-18N, længdekreds: 087-54-16W, højde: 220 m

Aktuelle vejr

Denne rapport blev lavet for 1 time og 10 minutter siden, kl. 06:52 UTC
Vind 7 kt fra sydvest
Temperatur 6°C
Fugtighed 70%
Tryk 1014 hPa
Sigt: 16.1 km
skyfri

METAR: KMKE 290652Z 23007KT 10SM CLR 06/01 A2994 RMK AO2 SLP143 T00610006

Tid: 02:02 (08:02 UTC)

Vejrudsigter

Denne rapport blev lavet for 2 timer og 30 minutter siden, kl. 05:32 UTC
Foreløbig gælder fra 29 på 06 UTC til 30 på 12 UTC
Vind 9 kt fra vestsydvest
Sigt: 10 km
skyfri
Fra 29 på 1500 UTC
Vind 12 kt fra vest
Sigt: 10 km
Nogle få skyer i en højde af 20000 ft
Fra 29 på 2000 UTC
Vind 11 kt fra nordvest med vindstød på up til 23 kt
Sigt: 10 km
Spredte skyer i en højde af 3500 ft
Fra 30 på 0000 UTC
Vind 13 kt fra nordnordvest med vindstød på up til 23 kt
Sigt: 10 km
Brudte skyer i en højde af 3500 ft

TAF: KMKE 290532Z 2906/3012 24009KT P6SM SKC FM291500 27012KT P6SM FEW200 FM292000 31011G23KT P6SM SCT035 FM300000 33013G23KT P6SM BKN035

Vejrobservationer og prognoser fra mere end 4000 lufthavne (METAR og TAF).

De gule og røde prikker repræsenterer de meteorologiske stationer.

Flyt musen over at se navnet på stationen.

Så klik over at se vejr observationer og prognoser.

At skifte det kort: Klik på de grønne knapper med et sort kors for at zoome ind; på den grønne knap med en bindestreg for at zoome ud; eller på de grønne pile for tilstødende kort.


METAR-TAF: